Aeroporto :
LOGIN :

Iscrizione | Disclaimer

   EN    FR    IT 

 










Sommario :    VFR   VFR Marginale   IFR   IFR Intensivo   IFR Molto Intensivo
Visibilità : 
Base nubi : 
>= 8 km
>= 3000ft
5 / 8 km
1000 / 3000 ft
1500m / 5 km
500 / 1000 ft
800 / 1500m
200 / 500 ft
< 800m
< 200 ft
Simboli :   Temporali  Nebbia  Neve Forte  Precipitazioni Forti  Vento > 20 kt
SIGMETs :   Varie  Temporali  Ghiacco  Turbolenza  Onda orograficha  Ceneri Vulcaniche







- Altitudine del aeroporto : 1299 ft


EDTY - Adolf Würth

ULTIMO METAR :
  • 201750Z 28007KT CAVOK 28/11 Q1014

METARs OBSOLETI :
  • 201720Z 27007KT CAVOK 29/12 Q1014
  • 201650Z 27009KT CAVOK 29/11 Q1014
  • 201620Z 24009KT CAVOK 30/12 Q1014
  • 201550Z 24009KT CAVOK 30/12 Q1014
  • 201520Z 24011KT 210V270 CAVOK 30/13 Q1014
  • 201450Z 24012KT CAVOK 31/13 Q1014

TAF TAF EDTY
Valido dal 20 a 18 ore il 21 a 03 ore UTC


201700Z 2018/2103 22010KT CAVOK
BECMG 2018/2020 24004KT
PROB30
TEMPO 2022/2103 24015G25KT TSRA BKN060CB
Nessun NOTAM noto per questo aeroporto.
4 SIGMETs conosciuti per la FIR Langen (EDGG) :
 
Temporali affogati
EDGG SIGMET T07 VALID 201732/201901 EDZF
EDGG LANGEN FIR EMBD TS OBS WI N5217 E00835 - N5217 E00860 - N5120 E00900 - N5120 E00919 - N5035 E00838 - N5050 E00727 - N5217 E00835 TOP FL380 NC FCST AT 1901Z WI N5356 E01058 - N5251 E01111 - N5127 E01006 - N5102 E00816 - N5351 E00958 - N5356 E01058=
Linea di groppi con grandine
EDGG SIGMET T06 VALID 201710/201900 EDZF
EDGG LANGEN FIR SQL TSGR OBS WI N5120 E00924 - N5120 E01033 - N5102 E01037 - N5001 E00911 - N5101 E00905 - N5120 E00924 TOP FL400 NC FCST AT 1900Z WI N5223 E01120 - N5417 E01152 - N5452 E01301 - N5327 E01310 - N5131 E01227 - N5052 E01101 - N5051 E00945 - N5223 E01120=
Cancellazione del SIGMET T0
EDGG SIGMET T05 VALID 201702/201732 EDZF
EDGG LANGEN FIR CNL SIGMET T04 201607/201732=
Temporali frequenti con grandine
EDGG SIGMET T04 VALID 201607/201732 EDZF
EDGG LANGEN FIR FRQ TSGR OBS WI N5218 E00730 - N5217 E00860 - N5120 E00900 - N5120 E00920 - N5041 E00928 - N5032 E00625 - N5218 E00730 TOP FL400 NC FCST AT 1732Z WI N5329 E00950 - N5047 E01017 - N5027 E00648 - N5330 E00825 - N5329 E00950=



MetMap, La meteo Aeronautica in un colpo d'occhio ! - Copyright ORBIFLY Dicembre 2007 - Disclaimer

ORBIFLY MET'MAP TEAM :

Programmazione e sviluppo : Alexandra Zaïnal
Concezione e sviluppo : Baudouin d'Aumeries
Co-Programmazione e sviluppo : Marc-Olivier Méhu
Supporto tecnico e logistico : Manuel Goepfert
Aiuto per la traduzione : Arnaldo La Scala

Contatto : metmap@orbifly.com




FONTI E CREDITI :

   NOAA